MHTG/TGU METAR and TAF weather

Enter ICAO airport designator
Station Type Date Time Source
MHTG METAR 2020/09/26 12:00 UTC NOAA

MHTG 261200Z 00000KT 3000 BR SCT004 BKN022 19/19 Q1020 A3012 NOSIG


Station Type Date Time Source
MHTG Decoded METAR 2020/09/26 12:00 UTC NOAA

Tegucigalpa, Honduras (MHTG) 14-03N 087-13W 1007M
Sep 26, 2020 - 08:00 AM EDT / 2020.09.26 1200 UTC
Wind: Calm:0
Visibility: 1 mile(s):0
Sky conditions: mostly cloudy
Weather: mist
Temperature: 66 F (19 C)
Dew Point: 66 F (19 C)
Relative Humidity: 100%
Pressure (altimeter): 30.12 in. Hg (1019 hPa)
ob: MHTG 261200Z 00000KT 3000 BR SCT004 BKN022 19/19 Q1020 A3012 NOSIG
cycle: 12

Station Type Date Time Source
MHTG TAF 2020/09/26 12:57 UTC NOAA

TAF MHTG 260950Z 2612/2712 00000KT 4000 BR SCT006 SCT024 TX30/2621Z TN18/2712Z
BECMG 2615/2617 16004KT 9999 NSW SCT030TCU
TEMPO 2620/2624 6000 TSSHRA SCT030TCU SCT032CB
BECMG 2702/2704 35004KT VCSH FEW010 FEW028CB BKN080
BECMG 2707/2709 00000KT 9999 NSW SCT026

Example: see airport list